Time;durP1;ratioP1;P1;durP2;ratioP2;P2;SDS_P1;SDS_P2;PMS_P1;PMS_P2;Temp;Humidity;BMP_temperature;BMP_pressure;BME280_temperature;BME280_humidity;BME280_pressure;Samples;Min_cycle;Max_cycle;Signal;HPM_P1;HPM_P2
2023/05/01 00:00:29;;;;;;;11.95;2.47;;;;;;;17.19;42.42;99827.59;4486119;31;34806;-66
2023/05/01 00:02:56;;;;;;;5.47;2.97;;;;;;;17.10;42.37;99825.81;4490774;31;32567;-66
2023/05/01 00:05:24;;;;;;;6.12;2.60;;;;;;;17.10;42.37;99815.84;4485437;31;34162;-66
2023/05/01 00:07:52;;;;;;;4.35;2.35;;;;;;;17.34;41.88;99812.53;4487558;31;34651;-66
2023/05/01 00:10:19;;;;;;;10.82;2.95;;;;;;;17.25;42.00;99815.31;4494422;31;35131;-68
2023/05/01 00:12:47;;;;;;;3.20;2.08;;;;;;;17.08;42.19;99822.41;4496023;31;33904;-66
2023/05/01 00:15:14;;;;;;;3.65;2.03;;;;;;;17.37;41.61;99816.78;4494694;31;34382;-64
2023/05/01 00:17:42;;;;;;;5.32;2.25;;;;;;;16.67;42.93;99817.41;4482250;31;34642;-64
2023/05/01 00:20:10;;;;;;;3.47;2.15;;;;;;;17.06;42.11;99816.31;4494529;31;33668;-65
2023/05/01 00:22:37;;;;;;;3.60;1.83;;;;;;;17.26;41.73;99815.12;4492251;31;33981;-65
2023/05/01 00:25:06;;;;;;;2.30;1.85;;;;;;;17.31;41.41;99815.53;4487723;31;35030;-65
2023/05/01 00:27:33;;;;;;;4.37;2.78;;;;;;;17.32;41.40;99814.53;4487022;31;34590;-65
2023/05/01 00:30:01;;;;;;;5.40;2.65;;;;;;;17.31;41.56;99814.69;4488987;31;33693;-64
2023/05/01 00:32:29;;;;;;;3.25;1.92;;;;;;;17.22;41.58;99808.34;4486734;31;32754;-64
2023/05/01 00:34:56;;;;;;;3.40;2.00;;;;;;;17.20;41.65;99815.75;4493319;31;34409;-64
2023/05/01 00:37:24;;;;;;;3.80;2.15;;;;;;;17.21;41.65;99809.38;4486003;31;33561;-64
2023/05/01 00:39:52;;;;;;;3.40;2.60;;;;;;;17.29;41.34;99814.00;4494255;31;36192;-66
2023/05/01 00:42:19;;;;;;;4.93;3.08;;;;;;;17.22;41.73;99820.00;4494523;31;32173;-67
2023/05/01 00:44:47;;;;;;;3.80;2.28;;;;;;;17.30;41.58;99816.53;4492907;31;33716;-65
2023/05/01 00:47:14;;;;;;;3.75;2.60;;;;;;;17.38;41.49;99815.75;4491086;31;33109;-65
2023/05/01 00:49:42;;;;;;;3.35;2.03;;;;;;;17.26;41.41;99822.41;4479853;31;33322;-65
2023/05/01 00:52:10;;;;;;;6.53;2.25;;;;;;;17.22;41.51;99821.88;4478680;31;33451;-65
2023/05/01 00:54:38;;;;;;;4.97;1.95;;;;;;;17.18;41.51;99821.34;4488324;31;34073;-67
2023/05/01 00:57:08;;;;;;;11.07;3.37;;;;;;;17.29;41.52;99816.69;4487109;31;34165;-66
2023/05/01 00:59:36;;;;;;;4.35;2.67;;;;;;;17.27;41.74;99818.69;4483110;31;33414;-66
2023/05/01 01:02:03;;;;;;;4.18;2.42;;;;;;;17.22;42.30;99822.72;4487910;31;33847;-64
2023/05/01 01:04:32;;;;;;;6.90;3.17;;;;;;;17.13;42.63;99820.09;4484595;31;33362;-66
2023/05/01 01:07:20;;;;;;;4.72;2.50;;;;;;;16.96;42.67;99816.41;4486899;31;32278;-65
2023/05/01 01:10:02;;;;;;;5.87;2.10;;;;;;;16.63;43.26;99818.72;4490121;31;34085;-65
2023/05/01 01:12:45;;;;;;;3.20;2.10;;;;;;;16.26;44.02;99819.63;4485454;31;35123;-65
2023/05/01 01:15:34;;;;;;;6.93;3.00;;;;;;;15.79;44.93;99819.69;4492708;31;35143;-65
2023/05/01 01:18:09;;;;;;;4.75;1.92;;;;;;;15.79;44.77;99821.50;4482645;31;32991;-65
2023/05/01 01:20:52;;;;;;;4.60;2.62;;;;;;;15.89;44.44;99816.06;4484060;31;33899;-65
2023/05/01 01:23:38;;;;;;;3.28;2.20;;;;;;;15.69;45.46;99817.97;4491680;31;33817;-65
2023/05/01 01:26:28;;;;;;;4.47;2.47;;;;;;;15.87;44.65;99810.00;4490774;31;33785;-64
2023/05/01 01:29:24;;;;;;;1.77;1.37;;;;;;;15.99;44.67;99811.50;4487147;31;33371;-64
2023/05/01 01:32:00;;;;;;;5.30;2.62;;;;;;;16.12;44.07;99811.19;4482971;31;33915;-65
2023/05/01 01:34:57;;;;;;;4.87;2.37;;;;;;;16.04;44.25;99801.94;4492743;31;32965;-68
2023/05/01 01:37:32;;;;;;;5.30;2.20;;;;;;;15.90;44.67;99799.75;4476312;31;33119;-65
2023/05/01 01:40:06;;;;;;;4.00;2.60;;;;;;;16.05;44.01;99800.09;4484099;31;32432;-64
2023/05/01 01:43:03;;;;;;;5.70;2.25;;;;;;;16.13;43.85;99796.66;4490954;31;33585;-67
2023/05/01 01:45:41;;;;;;;4.55;2.28;;;;;;;16.17;43.70;99804.31;4492478;31;34217;-67
2023/05/01 01:48:14;;;;;;;5.80;2.90;;;;;;;16.19;43.75;99799.62;4493551;31;34267;-67
2023/05/01 01:50:42;;;;;;;3.40;2.08;;;;;;;16.17;43.99;99798.91;4492032;31;33648;-67
2023/05/01 01:53:13;;;;;;;5.85;2.20;;;;;;;16.12;44.27;99797.69;4487007;31;32747;-64
2023/05/01 01:55:42;;;;;;;4.15;2.50;;;;;;;16.29;44.26;99803.13;4481170;31;34180;-65
2023/05/01 01:58:11;;;;;;;3.15;2.10;;;;;;;16.26;44.62;99806.12;4487533;31;34642;-65
2023/05/01 02:00:40;;;;;;;3.45;2.08;;;;;;;16.20;45.08;99798.62;4488339;31;33816;-66
2023/05/01 02:03:09;;;;;;;2.70;2.10;;;;;;;16.29;44.79;99807.69;4493758;31;32741;-65
2023/05/01 02:05:38;;;;;;;2.67;1.95;;;;;;;16.19;45.15;99806.88;4495662;31;34060;-64
2023/05/01 02:08:06;;;;;;;5.18;2.20;;;;;;;16.41;44.87;99805.63;4480457;31;35780;-64
2023/05/01 02:10:34;;;;;;;5.00;2.05;;;;;;;16.37;45.08;99807.78;4479551;31;34567;-65
2023/05/01 02:13:03;;;;;;;4.75;2.17;;;;;;;16.44;45.60;99814.28;4487766;31;33919;-66
2023/05/01 02:15:31;;;;;;;4.97;2.78;;;;;;;16.48;45.56;99806.72;4493332;31;34039;-64
2023/05/01 02:18:01;;;;;;;2.58;1.80;;;;;;;16.35;45.96;99804.38;4491598;31;32925;-64
2023/05/01 02:20:29;;;;;;;7.68;2.42;;;;;;;16.41;45.81;99805.63;4491708;31;34774;-65
2023/05/01 02:22:57;;;;;;;6.50;3.70;;;;;;;16.24;46.33;99810.84;4482527;31;33843;-65
2023/05/01 02:25:26;;;;;;;4.12;2.90;;;;;;;16.14;46.74;99806.47;4488225;31;33910;-65
2023/05/01 02:27:59;;;;;;;5.97;2.33;;;;;;;16.14;46.68;99801.06;4484362;31;33858;-65
2023/05/01 02:30:27;;;;;;;4.20;2.55;;;;;;;16.23;46.00;99801.03;4487281;31;36817;-65
2023/05/01 02:32:56;;;;;;;7.68;2.12;;;;;;;16.17;46.46;99793.50;4482224;31;33742;-65
2023/05/01 02:35:24;;;;;;;3.75;2.22;;;;;;;16.24;46.65;99799.16;4491313;31;34606;-65
2023/05/01 02:37:51;;;;;;;3.22;2.25;;;;;;;15.94;47.45;99798.44;4491038;31;33830;-65
2023/05/01 02:40:19;;;;;;;3.70;1.95;;;;;;;16.24;46.69;99800.03;4481966;31;33623;-66
2023/05/01 02:42:47;;;;;;;5.28;3.37;;;;;;;16.30;46.52;99801.25;4494380;31;33693;-65
2023/05/01 02:45:18;;;;;;;9.10;2.30;;;;;;;16.39;46.48;99797.66;4493836;31;33870;-65
2023/05/01 02:47:50;;;;;;;6.05;1.77;;;;;;;16.44;46.45;99800.78;4483921;31;33916;-66
2023/05/01 02:50:19;;;;;;;2.65;1.42;;;;;;;16.16;46.09;99807.19;4492707;31;33609;-64
2023/05/01 02:52:47;;;;;;;3.53;2.83;;;;;;;16.00;46.79;99811.34;4491743;31;34320;-65
2023/05/01 02:55:16;;;;;;;3.45;2.33;;;;;;;15.63;47.59;99813.13;4482327;31;34373;-66
2023/05/01 02:57:43;;;;;;;4.82;2.45;;;;;;;15.90;46.65;99807.84;4491608;31;35115;-65
2023/05/01 03:00:12;;;;;;;4.90;2.42;;;;;;;16.01;46.38;99815.75;4490992;31;33373;-65
2023/05/01 03:02:40;;;;;;;5.78;2.92;;;;;;;15.77;47.90;99815.41;4488592;31;33666;-67
2023/05/01 03:05:08;;;;;;;4.20;2.12;;;;;;;15.65;48.05;99821.94;4489779;31;34031;-64
2023/05/01 03:07:36;;;;;;;8.57;2.60;;;;;;;15.99;47.33;99819.63;4489608;31;33981;-64
2023/05/01 03:10:05;;;;;;;3.92;2.42;;;;;;;16.08;46.84;99813.28;4494222;31;32311;-64
2023/05/01 03:12:34;;;;;;;5.97;2.37;;;;;;;16.16;46.49;99812.56;4488713;31;33868;-66
2023/05/01 03:15:02;;;;;;;2.72;1.87;;;;;;;15.99;46.63;99817.75;4488264;31;33386;-66
2023/05/01 03:17:30;;;;;;;3.85;2.33;;;;;;;16.06;46.75;99823.41;4492049;31;34039;-67
2023/05/01 03:19:58;;;;;;;3.20;2.05;;;;;;;16.11;46.40;99818.41;4488107;31;34992;-68
2023/05/01 03:22:28;;;;;;;3.95;1.92;;;;;;;16.05;46.00;99819.88;4494030;31;35041;-65
2023/05/01 03:24:55;;;;;;;2.03;1.27;;;;;;;16.28;45.36;99817.63;4490327;31;33975;-67
2023/05/01 03:27:23;;;;;;;4.82;2.65;;;;;;;16.35;45.60;99820.59;4492238;31;34212;-66
2023/05/01 03:29:51;;;;;;;3.65;2.33;;;;;;;16.45;45.25;99823.22;4493472;31;33570;-65
2023/05/01 03:32:19;;;;;;;4.90;1.70;;;;;;;16.49;45.43;99827.31;4495933;31;33768;-65
2023/05/01 03:34:47;;;;;;;4.45;2.60;;;;;;;16.37;45.83;99832.09;4484619;31;34685;-67
2023/05/01 03:37:15;;;;;;;4.87;3.25;;;;;;;16.42;45.82;99824.38;4493357;31;35066;-65
2023/05/01 03:39:43;;;;;;;4.57;2.75;;;;;;;16.50;45.75;99831.72;4494879;31;33547;-67
2023/05/01 03:42:13;;;;;;;7.97;2.80;;;;;;;16.17;46.65;99825.06;4492783;31;34484;-66
2023/05/01 03:44:41;;;;;;;3.58;2.50;;;;;;;16.12;46.94;99832.78;4493913;31;35058;-68
2023/05/01 03:47:09;;;;;;;7.25;2.87;;;;;;;16.29;46.56;99830.12;4494058;31;34189;-69
2023/05/01 03:49:37;;;;;;;5.40;2.53;;;;;;;16.41;46.02;99830.78;4487235;31;32688;-67
2023/05/01 03:52:05;;;;;;;3.65;2.22;;;;;;;16.44;45.67;99827.78;4483171;31;34917;-69
2023/05/01 03:54:32;;;;;;;4.25;2.40;;;;;;;16.73;45.07;99824.06;4485216;31;33714;-68
2023/05/01 03:57:00;;;;;;;10.27;2.97;;;;;;;16.73;45.76;99818.66;4486418;31;34206;-66
2023/05/01 03:59:29;;;;;;;4.62;2.15;;;;;;;16.71;45.50;99828.75;4491817;31;33540;-67
2023/05/01 04:01:56;;;;;;;6.50;2.92;;;;;;;16.91;44.97;99826.81;4489337;31;33744;-66
2023/05/01 04:04:25;;;;;;;4.65;2.22;;;;;;;16.82;45.26;99825.03;4488609;31;32644;-65
2023/05/01 04:06:54;;;;;;;3.40;2.05;;;;;;;16.48;45.22;99821.06;4490445;31;34320;-69
2023/05/01 04:09:21;;;;;;;4.47;2.53;;;;;;;16.40;45.02;99823.66;4494362;31;33681;-66
2023/05/01 04:11:49;;;;;;;2.35;2.00;;;;;;;16.45;44.97;99828.63;4492524;31;33832;-66
2023/05/01 04:14:16;;;;;;;6.20;2.53;;;;;;;16.29;45.00;99821.19;4489127;31;34011;-68
2023/05/01 04:16:44;;;;;;;3.20;2.22;;;;;;;16.27;44.17;99825.87;4485149;31;34041;-66
2023/05/01 04:19:12;;;;;;;3.35;2.55;;;;;;;16.07;44.58;99820.56;4492124;31;33731;-66
2023/05/01 04:21:43;;;;;;;4.03;2.22;;;;;;;15.94;44.41;99814.62;4492210;31;93345;-68
2023/05/01 04:24:11;;;;;;;2.15;1.55;;;;;;;15.90;44.59;99826.72;4484482;31;34291;-64
2023/05/01 04:26:41;;;;;;;2.12;1.40;;;;;;;15.88;44.23;99819.78;4491528;31;33971;-65
2023/05/01 04:29:09;;;;;;;4.03;2.33;;;;;;;15.53;44.74;99832.87;4482024;31;32275;-65
2023/05/01 04:31:36;;;;;;;3.15;1.87;;;;;;;16.05;43.72;99835.19;4495590;31;32561;-64
2023/05/01 04:34:04;;;;;;;7.25;2.55;;;;;;;15.41;44.51;99838.56;4493035;31;35014;-65
2023/05/01 04:36:31;;;;;;;5.07;1.60;;;;;;;15.84;44.10;99832.72;4489361;31;32759;-65
2023/05/01 04:38:59;;;;;;;2.90;1.92;;;;;;;16.07;43.62;99831.34;4497079;31;33097;-64
2023/05/01 04:41:28;;;;;;;2.92;1.73;;;;;;;16.00;43.52;99834.81;4492412;31;33751;-65
2023/05/01 04:43:56;;;;;;;3.37;2.03;;;;;;;16.14;43.16;99839.72;4487115;31;33872;-66
2023/05/01 04:46:23;;;;;;;3.62;2.62;;;;;;;16.19;43.67;99839.28;4490781;31;35047;-65
2023/05/01 04:48:51;;;;;;;4.32;2.28;;;;;;;16.34;42.88;99840.50;4495364;31;33440;-64
2023/05/01 04:51:19;;;;;;;4.15;2.35;;;;;;;16.39;42.83;99838.19;4482337;31;32760;-68
2023/05/01 04:53:47;;;;;;;4.22;2.12;;;;;;;16.18;43.44;99846.53;4491675;31;34154;-70
2023/05/01 04:56:15;;;;;;;1.73;1.20;;;;;;;15.76;43.66;99844.25;4492598;31;34321;-67
2023/05/01 04:58:43;;;;;;;3.47;2.12;;;;;;;15.82;42.63;99837.41;4488558;31;34706;-66
2023/05/01 05:01:11;;;;;;;3.42;2.53;;;;;;;15.83;42.95;99844.53;4485081;31;33670;-67
2023/05/01 05:03:39;;;;;;;5.57;3.20;;;;;;;15.32;43.64;99846.53;4489334;31;35193;-67
2023/05/01 05:06:07;;;;;;;3.58;2.25;;;;;;;15.63;43.83;99850.91;4491290;31;33953;-66
2023/05/01 05:08:35;;;;;;;4.05;2.08;;;;;;;15.37;43.41;99848.78;4497199;31;33981;-68
2023/05/01 05:11:03;;;;;;;3.92;2.28;;;;;;;15.61;43.30;99845.66;4487366;31;32143;-65
2023/05/01 05:13:31;;;;;;;3.95;2.12;;;;;;;15.50;43.75;99857.44;4493096;31;33678;-64
2023/05/01 05:15:59;;;;;;;4.62;1.85;;;;;;;15.58;43.63;99841.41;4486314;31;32524;-64
2023/05/01 05:18:27;;;;;;;3.45;1.87;;;;;;;15.75;43.25;99847.94;4498456;31;33295;-65
2023/05/01 05:20:55;;;;;;;8.80;1.90;;;;;;;15.51;43.75;99856.47;4487655;31;32788;-66
2023/05/01 05:23:23;;;;;;;3.50;2.10;;;;;;;15.29;44.64;99859.47;4491826;31;34049;-66
2023/05/01 05:25:51;;;;;;;3.95;2.70;;;;;;;15.38;43.73;99862.16;4488378;31;33709;-65
2023/05/01 05:28:18;;;;;;;18.08;3.03;;;;;;;15.59;43.54;99855.75;4495234;31;34699;-64
2023/05/01 05:30:46;;;;;;;2.95;1.77;;;;;;;15.59;43.49;99851.19;4491687;31;35059;-65
2023/05/01 05:33:14;;;;;;;1.65;1.30;;;;;;;16.45;41.58;99861.91;4499989;31;34981;-65
2023/05/01 05:35:42;;;;;;;3.40;1.52;;;;;;;16.25;38.88;99854.91;4497283;31;34224;-65
2023/05/01 05:38:09;;;;;;;4.20;2.60;;;;;;;16.01;40.83;99858.09;4499986;31;34733;-66
2023/05/01 05:40:37;;;;;;;3.20;1.65;;;;;;;15.95;40.46;99864.91;4492755;31;34002;-64
2023/05/01 05:43:05;;;;;;;6.65;2.35;;;;;;;15.64;40.58;99860.72;4491985;31;33627;-65
2023/05/01 05:45:34;;;;;;;5.40;3.10;;;;;;;15.63;41.18;99869.78;4487573;31;34234;-65
2023/05/01 05:48:03;;;;;;;3.05;1.80;;;;;;;15.26;42.17;99865.13;4499307;31;33513;-66
2023/05/01 05:50:31;;;;;;;2.83;1.85;;;;;;;15.74;41.65;99875.91;4484051;31;32584;-65
2023/05/01 05:52:58;;;;;;;5.47;2.50;;;;;;;16.08;39.95;99870.00;4494144;31;34006;-66
2023/05/01 05:55:27;;;;;;;3.12;1.55;;;;;;;15.83;40.17;99872.34;4493806;31;33943;-65
2023/05/01 05:57:56;;;;;;;2.20;1.37;;;;;;;15.52;40.03;99871.66;4487115;31;33592;-65
2023/05/01 06:00:23;;;;;;;7.28;1.70;;;;;;;15.59;40.31;99870.06;4490565;31;33968;-64
2023/05/01 06:02:51;;;;;;;3.55;2.05;;;;;;;15.41;41.28;99877.22;4487612;31;34134;-66
2023/05/01 06:05:19;;;;;;;3.65;1.95;;;;;;;15.45;41.58;99873.22;4494154;31;35223;-65
2023/05/01 06:07:47;;;;;;;1.85;0.85;;;;;;;15.22;41.79;99872.66;4493368;31;33493;-64
2023/05/01 06:10:14;;;;;;;4.47;2.80;;;;;;;15.06;42.52;99877.75;4491721;31;31914;-66
2023/05/01 06:12:42;;;;;;;4.90;3.40;;;;;;;15.31;42.54;99887.13;4494372;31;32853;-66
2023/05/01 06:15:26;;;;;;;2.95;1.95;;;;;;;15.74;41.64;99885.88;4491188;31;32483;-65
2023/05/01 06:17:53;;;;;;;6.57;3.20;;;;;;;15.72;42.03;99880.59;4485463;31;34938;-65
2023/05/01 06:20:21;;;;;;;2.60;2.00;;;;;;;15.93;41.25;99879.59;4489198;31;32599;-65
2023/05/01 06:22:49;;;;;;;3.05;2.05;;;;;;;15.76;41.49;99881.16;4493734;31;35151;-64
2023/05/01 06:25:17;;;;;;;4.68;2.65;;;;;;;16.22;40.81;99879.50;4494761;31;33029;-66
2023/05/01 06:27:44;;;;;;;1.70;1.25;;;;;;;16.04;41.33;99882.94;4490489;31;33389;-65
2023/05/01 06:30:12;;;;;;;3.95;1.98;;;;;;;15.50;38.24;99886.28;4490052;31;33825;-66
2023/05/01 06:32:42;;;;;;;5.15;1.45;;;;;;;15.90;37.87;99896.91;4489716;31;34656;-64
2023/05/01 06:35:10;;;;;;;16.98;2.45;;;;;;;15.69;39.12;99891.69;4495004;31;35836;-66
2023/05/01 06:37:38;;;;;;;3.90;1.95;;;;;;;15.28;39.63;99890.97;4491438;31;33521;-64
2023/05/01 06:40:07;;;;;;;5.95;2.30;;;;;;;15.26;39.46;99890.25;4494476;31;35075;-64
2023/05/01 06:42:38;;;;;;;7.80;2.72;;;;;;;15.71;39.11;99888.84;4496261;31;34039;-66
2023/05/01 06:45:06;;;;;;;2.10;1.55;;;;;;;16.10;38.22;99894.16;4495873;31;32683;-66
2023/05/01 06:47:34;;;;;;;1.95;1.25;;;;;;;15.89;37.71;99897.03;4488042;31;33650;-65
2023/05/01 06:50:03;;;;;;;1.45;1.35;;;;;;;15.81;36.28;99893.22;4488870;31;34295;-64
2023/05/01 06:52:32;;;;;;;1.65;1.25;;;;;;;16.40;36.16;99888.50;4498779;31;33878;-65
2023/05/01 06:55:00;;;;;;;2.08;1.05;;;;;;;16.63;35.00;99886.28;4489261;31;34136;-66
2023/05/01 06:57:27;;;;;;;2.05;1.23;;;;;;;16.84;33.96;99894.16;4486352;31;33353;-65
2023/05/01 06:59:55;;;;;;;3.70;2.25;;;;;;;16.82;33.59;99882.66;4484680;31;33830;-64
2023/05/01 07:02:23;;;;;;;1.58;1.23;;;;;;;15.81;35.21;99895.09;4492127;31;35019;-66
2023/05/01 07:04:52;;;;;;;3.17;1.50;;;;;;;16.07;35.17;99881.81;4490472;31;34248;-65
2023/05/01 07:07:19;;;;;;;3.62;1.52;;;;;;;16.10;34.36;99888.78;4494253;31;33401;-65
2023/05/01 07:09:47;;;;;;;3.42;2.03;;;;;;;15.32;35.48;99894.22;4491065;31;34525;-64
2023/05/01 07:12:14;;;;;;;2.85;1.12;;;;;;;15.92;34.70;99886.84;4494714;31;34039;-66
2023/05/01 07:14:42;;;;;;;1.55;0.95;;;;;;;16.10;33.82;99897.72;4495658;31;35066;-65
2023/05/01 07:17:09;;;;;;;1.27;0.90;;;;;;;16.67;33.54;99894.94;4487449;31;35191;-64
2023/05/01 07:19:37;;;;;;;3.25;1.37;;;;;;;17.07;32.00;99896.44;4487073;31;33598;-65
2023/05/01 07:22:05;;;;;;;2.72;1.23;;;;;;;16.39;33.22;99896.75;4488184;31;34664;-65
2023/05/01 07:24:32;;;;;;;3.12;1.33;;;;;;;16.39;33.34;99894.91;4491160;31;32640;-65
2023/05/01 07:27:00;;;;;;;1.60;1.17;;;;;;;16.65;32.93;99889.66;4485302;31;34536;-65
2023/05/01 07:29:28;;;;;;;1.55;1.05;;;;;;;16.67;32.01;99890.38;4487609;31;32512;-64
2023/05/01 07:31:56;;;;;;;1.65;1.15;;;;;;;16.80;32.35;99895.47;4486675;31;33824;-65
2023/05/01 07:34:23;;;;;;;3.12;1.33;;;;;;;16.96;32.13;99889.41;4491029;31;34071;-66
2023/05/01 07:36:51;;;;;;;3.70;1.75;;;;;;;16.24;32.57;99896.38;4492289;31;32182;-65
2023/05/01 07:39:18;;;;;;;2.95;1.65;;;;;;;16.55;32.44;99894.28;4493085;31;35098;-64
2023/05/01 07:41:46;;;;;;;1.65;1.33;;;;;;;16.61;32.25;99895.53;4490930;31;34918;-64
2023/05/01 07:44:14;;;;;;;3.72;1.75;;;;;;;16.96;31.05;99906.47;4487409;31;33819;-65
2023/05/01 07:46:41;;;;;;;2.17;1.42;;;;;;;17.11;31.33;99900.53;4487933;31;33451;-65
2023/05/01 07:49:09;;;;;;;4.37;1.48;;;;;;;16.85;31.72;99895.00;4491654;31;35002;-65
2023/05/01 07:51:37;;;;;;;3.40;1.30;;;;;;;17.21;30.51;99899.47;4492200;31;32662;-65
2023/05/01 07:54:04;;;;;;;2.28;0.98;;;;;;;17.56;30.59;99899.59;4494329;31;34177;-66
2023/05/01 07:56:32;;;;;;;1.87;1.20;;;;;;;17.66;30.15;99909.34;4487408;31;33351;-64
2023/05/01 07:58:59;;;;;;;2.08;1.77;;;;;;;17.84;29.51;99898.50;4489628;31;33956;-66
2023/05/01 08:01:27;;;;;;;1.27;0.85;;;;;;;17.99;30.54;99897.97;4487141;31;33618;-64
2023/05/01 08:03:55;;;;;;;2.12;1.15;;;;;;;17.92;30.30;99904.00;4487685;31;35393;-65
2023/05/01 08:06:22;;;;;;;2.75;1.52;;;;;;;18.07;30.36;99892.59;4492733;31;33393;-64
2023/05/01 08:08:50;;;;;;;2.20;1.25;;;;;;;18.44;29.54;99892.31;4481827;32;34519;-63
2023/05/01 08:11:17;;;;;;;3.58;2.03;;;;;;;18.04;30.27;99904.59;4489481;31;34878;-66
2023/05/01 08:13:45;;;;;;;7.57;1.50;;;;;;;18.42;30.39;99898.88;4482071;31;33798;-66
2023/05/01 08:16:12;;;;;;;2.78;1.67;;;;;;;18.17;30.61;99901.47;4492273;31;34772;-65
2023/05/01 08:18:40;;;;;;;1.65;1.17;;;;;;;17.60;30.70;99895.59;4482377;31;33949;-65
2023/05/01 08:21:07;;;;;;;3.35;1.85;;;;;;;17.93;30.32;99902.13;4488391;31;34186;-66
2023/05/01 08:23:35;;;;;;;1.90;1.65;;;;;;;17.99;30.72;99909.63;4484509;31;33661;-65
2023/05/01 08:26:02;;;;;;;3.22;1.58;;;;;;;18.29;29.67;99905.59;4496006;31;34455;-65
2023/05/01 08:28:33;;;;;;;2.67;1.50;;;;;;;18.07;30.31;99914.25;4494409;31;33525;-66
2023/05/01 08:31:00;;;;;;;9.90;2.05;;;;;;;18.00;30.30;99907.78;4492384;31;32561;-66
2023/05/01 08:33:28;;;;;;;2.78;1.60;;;;;;;18.68;29.81;99899.69;4496306;31;32038;-65
2023/05/01 08:35:56;;;;;;;3.10;1.02;;;;;;;18.83;28.88;99892.66;4495962;31;33458;-65
2023/05/01 08:38:23;;;;;;;3.92;1.95;;;;;;;18.58;29.83;99899.81;4486994;31;33767;-66
2023/05/01 08:40:52;;;;;;;2.65;1.42;;;;;;;18.75;29.66;99900.78;4497936;31;34842;-64
2023/05/01 08:43:20;;;;;;;2.08;1.02;;;;;;;19.01;29.65;99883.56;4495101;31;34117;-66
2023/05/01 08:45:48;;;;;;;2.10;1.25;;;;;;;18.98;29.36;99892.03;4483382;31;33368;-65
2023/05/01 08:48:17;;;;;;;2.55;1.58;;;;;;;19.29;29.49;99889.53;4495267;31;34900;-65
2023/05/01 08:50:46;;;;;;;3.67;1.98;;;;;;;19.00;29.86;99896.25;4490230;31;33926;-66
2023/05/01 08:53:15;;;;;;;1.85;1.08;;;;;;;19.01;29.51;99902.56;4496303;31;35154;-63
2023/05/01 08:55:46;;;;;;;2.90;1.23;;;;;;;19.34;28.71;99899.91;4491938;31;33696;-61
2023/05/01 08:58:16;;;;;;;4.82;1.50;;;;;;;19.41;28.83;99893.63;4490990;31;33010;-63
2023/05/01 09:00:45;;;;;;;1.80;1.12;;;;;;;19.59;28.56;99893.50;4486981;31;32855;-65
2023/05/01 09:03:13;;;;;;;3.25;1.62;;;;;;;19.38;28.70;99901.25;4488060;31;35394;-63
2023/05/01 09:05:41;;;;;;;1.62;1.15;;;;;;;19.08;29.80;99896.28;4491270;31;34314;-63
2023/05/01 09:08:08;;;;;;;7.50;2.20;;;;;;;19.36;29.14;99892.44;4497186;31;33613;-63
2023/05/01 09:10:41;;;;;;;2.70;1.50;;;;;;;19.75;28.99;99903.53;4495489;31;32857;-64
2023/05/01 09:13:09;;;;;;;2.60;1.62;;;;;;;20.05;28.49;99893.81;4483850;31;34106;-63
2023/05/01 09:15:37;;;;;;;3.42;1.50;;;;;;;19.18;29.73;99895.31;4483714;31;33307;-64
2023/05/01 09:18:04;;;;;;;5.68;1.92;;;;;;;19.61;29.18;99883.28;4495320;31;33606;-63
2023/05/01 09:20:36;;;;;;;6.25;2.60;;;;;;;19.76;28.66;99881.63;4497518;31;32850;-64
2023/05/01 09:23:03;;;;;;;7.12;2.08;;;;;;;19.92;28.30;99885.34;4496065;31;35146;-63
2023/05/01 09:25:30;;;;;;;5.12;1.67;;;;;;;19.80;28.97;99884.00;4493584;31;33317;-64
2023/05/01 09:27:58;;;;;;;6.03;2.00;;;;;;;20.35;28.35;99877.78;4494044;31;35062;-65
2023/05/01 09:30:34;;;;;;;5.65;1.50;;;;;;;20.85;27.69;99885.59;4490609;31;32960;-63
2023/05/01 09:33:12;;;;;;;1.87;1.20;;;;;;;20.33;28.48;99888.84;4485256;31;34693;-64
2023/05/01 09:35:56;;;;;;;2.50;1.25;;;;;;;21.27;27.76;99875.34;4491891;31;31916;-64
2023/05/01 09:38:25;;;;;;;7.05;2.08;;;;;;;20.73;27.67;99883.47;4484491;31;33890;-64
2023/05/01 09:40:55;;;;;;;3.62;1.55;;;;;;;20.79;27.45;99874.59;4489303;31;33724;-64
2023/05/01 09:43:28;;;;;;;5.82;1.77;;;;;;;21.53;26.91;99889.47;4495600;31;34186;-64
2023/05/01 09:46:08;;;;;;;3.10;1.35;;;;;;;21.43;26.67;99869.81;4485989;31;33709;-63
2023/05/01 09:48:36;;;;;;;3.35;1.73;;;;;;;22.05;26.53;99880.50;4489778;31;34817;-63
2023/05/01 09:51:27;;;;;;;6.15;1.60;;;;;;;21.05;27.82;99868.84;4497058;31;35062;-63
2023/05/01 09:54:02;;;;;;;6.32;2.22;;;;;;;20.69;27.66;99870.22;4496824;31;33569;-64
2023/05/01 09:56:31;;;;;;;3.15;1.33;;;;;;;21.38;27.21;99872.25;4492190;31;33526;-64
2023/05/01 09:59:14;;;;;;;5.35;2.03;;;;;;;21.42;26.84;99870.84;4490473;31;33373;-65
2023/05/01 10:01:44;;;;;;;6.50;1.70;;;;;;;21.78;26.46;99868.31;4489989;31;34398;-63
2023/05/01 10:04:12;;;;;;;4.03;1.70;;;;;;;22.10;26.26;99861.69;4495996;31;33647;-63
2023/05/01 10:06:40;;;;;;;5.57;2.25;;;;;;;22.14;25.54;99864.06;4489349;31;33634;-64
2023/05/01 10:09:16;;;;;;;15.20;1.90;;;;;;;22.12;25.74;99850.63;4495486;31;34915;-64
2023/05/01 10:11:52;;;;;;;5.90;2.22;;;;;;;22.57;26.35;99843.31;4496815;31;35916;-65
2023/05/01 10:14:22;;;;;;;4.62;1.87;;;;;;;22.49;25.13;99846.97;4496734;31;35173;-64
2023/05/01 10:16:53;;;;;;;2.72;1.42;;;;;;;22.76;25.38;99847.28;4496002;31;33806;-63
2023/05/01 10:19:21;;;;;;;4.87;1.80;;;;;;;23.05;24.52;99842.84;4498588;31;33876;-64
2023/05/01 10:21:48;;;;;;;5.72;1.87;;;;;;;22.70;24.94;99845.34;4488606;31;34860;-64
2023/05/01 10:24:17;;;;;;;4.97;1.92;;;;;;;22.10;25.37;99836.31;4484526;31;34959;-65
2023/05/01 10:26:47;;;;;;;9.43;1.92;;;;;;;22.92;24.51;99838.03;4487924;31;33737;-64
2023/05/01 10:29:15;;;;;;;4.15;1.55;;;;;;;22.02;25.79;99837.28;4491721;31;33975;-64
2023/05/01 10:31:42;;;;;;;3.15;1.60;;;;;;;22.20;25.66;99822.44;4482173;31;33940;-62
2023/05/01 10:34:15;;;;;;;6.25;1.87;;;;;;;22.55;26.14;99824.38;4486663;31;33855;-64
2023/05/01 10:36:46;;;;;;;4.55;1.60;;;;;;;22.51;25.45;99828.53;4495740;31;34789;-64
2023/05/01 10:39:34;;;;;;;5.53;1.92;;;;;;;22.56;25.30;99833.41;4496562;31;33726;-65
2023/05/01 10:42:15;;;;;;;4.97;1.25;;;;;;;22.15;25.08;99824.84;4491203;31;35197;-63
2023/05/01 10:44:43;;;;;;;5.35;1.98;;;;;;;22.50;25.36;99826.00;4489961;31;34144;-63
2023/05/01 10:47:33;;;;;;;3.50;1.67;;;;;;;23.08;25.44;99815.16;4484555;31;32992;-63
2023/05/01 10:50:08;;;;;;;10.98;1.87;;;;;;;23.27;25.32;99817.25;4489141;31;33625;-63
2023/05/01 10:53:15;;;;;;;2.72;1.23;;;;;;;23.25;24.52;99817.44;4491775;31;33828;-64
2023/05/01 10:55:46;;;;;;;;;;;;;;;22.68;25.04;99814.69;4486561;31;34866;-63
2023/05/01 10:58:37;;;;;;;4.87;1.92;;;;;;;22.82;25.17;99826.59;4489266;31;33432;-64
2023/05/01 11:01:27;;;;;;;3.60;1.48;;;;;;;23.17;24.50;99820.28;4487339;31;33655;-65
2023/05/01 11:03:56;;;;;;;6.12;2.15;;;;;;;23.49;24.24;99815.34;4488342;31;35062;-64
2023/05/01 11:06:23;;;;;;;4.55;1.95;;;;;;;24.04;24.23;99810.13;4492670;31;33816;-63
2023/05/01 11:08:52;;;;;;;4.72;2.05;;;;;;;23.43;24.29;99803.31;4487172;31;33475;-63
2023/05/01 11:11:22;;;;;;;4.28;1.80;;;;;;;24.08;24.16;99805.97;4498225;31;34108;-63
2023/05/01 11:13:59;;;;;;;5.20;1.75;;;;;;;24.06;24.30;99806.12;4498519;31;33274;-65
2023/05/01 11:16:36;;;;;;;4.80;1.50;;;;;;;24.17;24.31;99805.59;4494220;31;34201;-64
2023/05/01 11:19:19;;;;;;;3.30;1.67;;;;;;;24.48;23.71;99803.44;4491456;31;34690;-63
2023/05/01 11:21:48;;;;;;;7.90;2.12;;;;;;;23.33;24.85;99799.22;4489119;31;33810;-65
2023/05/01 11:24:19;;;;;;;3.05;1.48;;;;;;;23.96;24.66;99800.19;4485421;31;33763;-63
2023/05/01 11:26:47;;;;;;;2.15;1.30;;;;;;;23.38;25.38;99799.50;4483852;31;33339;-63
2023/05/01 11:29:15;;;;;;;5.70;2.00;;;;;;;23.81;25.07;99786.63;4487816;31;33320;-63
2023/05/01 11:31:47;;;;;;;5.43;1.62;;;;;;;24.17;23.87;99788.31;4489103;31;33900;-63
2023/05/01 11:34:15;;;;;;;6.18;2.35;;;;;;;23.73;24.47;99784.06;4483091;31;35347;-65
2023/05/01 11:36:48;;;;;;;4.20;1.95;;;;;;;23.67;24.52;99782.09;4490168;31;34894;-63
2023/05/01 11:39:16;;;;;;;5.03;1.90;;;;;;;23.61;24.63;99782.88;4485903;31;33611;-62
2023/05/01 11:41:44;;;;;;;4.22;1.67;;;;;;;23.41;25.30;99775.38;4484758;31;34616;-65
2023/05/01 11:44:16;;;;;;;3.47;1.73;;;;;;;24.07;25.58;99777.75;4489909;31;33766;-63
2023/05/01 11:46:44;;;;;;;4.50;1.70;;;;;;;23.41;25.18;99785.47;4489519;31;33504;-63